CA-0638 weather

CLOSED Louisville/Cascades Heliport
Louisville, Quebec, Canada

Public forecast

Using degrees Celsius for public forecast. Weather courtesy of forecast.io.

METAR (pilot weather report)

Closest report is Trois-Rivières Airport, 12.6 nm (23.3 km) ENE. Retrieved 2019/09/23 19:00 UTC (30 minutes ago):

CYRQ 231900Z AUTO /////KT 9SM OVC026 19/18 A2962 RMK WND MISG SLP033 DENSITY ALT 1000FT

TAF (pilot weather forecast)

Closest forecast is Trois-Rivières Airport, 12.6 nm (23.3 km) ENE. Retrieved 2019/09/23 20:00 UTC (0 seconds ago):

TAF CYRQ 231943Z 2320/2408 VRB03KT P6SM SCT006 OVC025 TEMPO 2320/2322 3SM -RA BR BKN006 OVC025 FM232200 VRB03KT P6SM SCT008 OVC040 TEMPO 2322/2403 5SM -SHRA BR BKN008 OVC040 PROB30 2322/2403 2SM TSRA BR BKN006 OVC030CB FM240300 VRB03KT 3SM -SHRA BR OVC006 TEMPO 2403/2408 6SM BR OVC010 RMK FCST BASED ON AUTO OBS. NXT FCST BY 240200Z